Ekin, Indiana
Current Conditions -  °F | °C
As of 3:15 PM on Saturday 25 Oct 2014 (Local Time) from KTYQ Reporting Station
Clear Clear  
Wind Chill: 76°   Ceiling: Unl
Heat Index: 76°   Visibility: 10mi
Dew Point: 45°   Wind: 15mph
Humidity: 34%   Direction: 260°W
Pressure: 29.93"   Gusts: 23mph
Location:  40.1832°N, 85.9359°W
Report Text: KTYQ 251915Z AUTO 26013G20KT 10SM CLR 24/07 A2993 RMK AO2 T02430074
Loading
Personal Weather Stations






























Interactive Weather Map
Tropical Storm Tracking
New forecast layout! Learn more

10-Day Weather Forecast

Advertisements
Track Severe Weather on mobile